createdAt,value
2019-05-09T00:00:04.121Z,100.00
2019-05-09T00:02:44.223Z,100.00
2019-05-09T00:05:14.379Z,100.00
2019-05-09T00:07:44.674Z,100.00
2019-05-09T00:10:14.354Z,100.00
2019-05-09T00:12:43.879Z,100.00
2019-05-09T00:15:14.042Z,100.00
2019-05-09T00:17:43.963Z,100.00
2019-05-09T00:20:20.826Z,100.00
2019-05-09T00:22:50.241Z,100.00
2019-05-09T00:25:19.718Z,100.00
2019-05-09T00:27:49.064Z,100.00
2019-05-09T00:30:22.674Z,100.00
2019-05-09T00:32:53.344Z,100.00
2019-05-09T00:35:33.826Z,100.00
2019-05-09T00:38:08.039Z,100.00
2019-05-09T00:40:37.661Z,100.00
2019-05-09T00:43:07.117Z,100.00
2019-05-09T00:45:58.373Z,100.00
2019-05-09T00:48:43.960Z,100.00
2019-05-09T00:51:14.133Z,100.00
2019-05-09T00:53:44.443Z,100.00
2019-05-09T00:56:14.120Z,100.00
2019-05-09T00:58:44.179Z,100.00
2019-05-09T01:01:15.002Z,100.00
2019-05-09T01:03:44.547Z,100.00
2019-05-09T01:06:15.856Z,100.00
2019-05-09T01:08:45.242Z,100.00
2019-05-09T01:11:15.603Z,100.00
2019-05-09T01:13:45.248Z,100.00
2019-05-09T01:16:14.671Z,100.00
2019-05-09T01:18:44.132Z,100.00
2019-05-09T01:21:13.604Z,100.00
2019-05-09T01:23:43.741Z,100.00
2019-05-09T01:26:13.416Z,100.00
2019-05-09T01:28:44.202Z,100.00
2019-05-09T01:31:13.684Z,100.00
2019-05-09T01:33:53.276Z,100.00
2019-05-09T01:36:23.476Z,100.00
2019-05-09T01:38:53.998Z,100.00
2019-05-09T01:41:30.500Z,100.00
2019-05-09T01:43:54.924Z,100.00
2019-05-09T01:46:24.708Z,100.00
2019-05-09T01:48:54.137Z,100.00
2019-05-09T01:51:23.600Z,100.00
2019-05-09T01:53:54.723Z,100.00
2019-05-09T01:56:24.017Z,100.00
2019-05-09T01:58:54.112Z,100.00
2019-05-09T02:01:24.263Z,100.00
2019-05-09T02:03:53.961Z,100.00
2019-05-09T02:06:24.397Z,100.00
2019-05-09T02:08:54.625Z,100.00
2019-05-09T02:11:38.424Z,100.00
2019-05-09T02:13:55.450Z,100.00
2019-05-09T02:16:44.384Z,100.00
2019-05-09T02:19:38.912Z,100.00
2019-05-09T02:22:25.911Z,100.00
2019-05-09T02:24:55.432Z,100.00
2019-05-09T02:27:24.791Z,100.00
2019-05-09T02:29:54.476Z,100.00
2019-05-09T02:32:24.213Z,100.00
2019-05-09T02:34:54.772Z,100.00
2019-05-09T02:37:24.491Z,100.00
2019-05-09T02:39:53.874Z,100.00
2019-05-09T02:42:23.407Z,100.00
2019-05-09T02:44:52.817Z,100.00
2019-05-09T02:47:24.078Z,100.00
2019-05-09T02:49:53.422Z,100.00
2019-05-09T02:52:23.048Z,100.00
2019-05-09T02:54:52.474Z,100.00
2019-05-09T02:57:21.853Z,100.00
2019-05-09T03:00:29.074Z,100.00
2019-05-09T03:03:19.497Z,100.00
2019-05-09T03:05:48.802Z,100.00
2019-05-09T03:08:19.149Z,100.00
2019-05-09T03:10:49.321Z,100.00
2019-05-09T03:13:19.296Z,100.00
2019-05-09T03:15:50.487Z,100.00
2019-05-09T03:18:19.810Z,100.00
2019-05-09T03:20:58.513Z,100.00
2019-05-09T03:23:28.497Z,100.00
2019-05-09T03:26:00.472Z,100.00
2019-05-09T03:28:51.525Z,100.00
2019-05-09T03:31:22.316Z,100.00
2019-05-09T03:33:51.778Z,100.00
2019-05-09T03:36:21.309Z,100.00
2019-05-09T03:38:50.638Z,100.00
2019-05-09T03:41:20.065Z,100.00
2019-05-09T03:43:49.435Z,100.00
2019-05-09T03:46:35.471Z,100.00
2019-05-09T03:49:07.475Z,100.00
2019-05-09T03:51:37.929Z,100.00
2019-05-09T03:54:08.090Z,100.00
2019-05-09T03:56:41.736Z,100.00
2019-05-09T03:59:11.110Z,100.00
2019-05-09T04:01:40.664Z,100.00
2019-05-09T04:04:10.032Z,100.00
2019-05-09T04:06:39.508Z,100.00
2019-05-09T04:09:08.947Z,100.00
2019-05-09T04:11:38.383Z,100.00
2019-05-09T04:14:11.419Z,100.00
2019-05-09T04:16:40.932Z,100.00
2019-05-09T04:19:10.281Z,100.00
2019-05-09T04:21:39.744Z,100.00
2019-05-09T04:24:09.171Z,100.00
2019-05-09T04:26:50.295Z,100.00
2019-05-09T04:29:19.699Z,100.00
2019-05-09T04:31:49.183Z,100.00
2019-05-09T04:34:18.580Z,100.00
2019-05-09T04:36:48.485Z,100.00
2019-05-09T04:39:23.353Z,100.00
2019-05-09T04:41:49.290Z,100.00
2019-05-09T04:44:49.899Z,100.00
2019-05-09T04:47:17.802Z,100.00
2019-05-09T04:49:47.957Z,100.00
2019-05-09T04:52:18.146Z,100.00
2019-05-09T04:54:48.500Z,100.00
2019-05-09T04:57:18.150Z,100.00
2019-05-09T04:59:47.708Z,100.00
2019-05-09T05:02:27.460Z,100.00
2019-05-09T05:04:58.533Z,100.00
2019-05-09T05:07:28.714Z,100.00
2019-05-09T05:09:58.920Z,100.00
2019-05-09T05:12:28.350Z,100.00
2019-05-09T05:14:58.154Z,100.00
2019-05-09T05:17:30.491Z,100.00
2019-05-09T05:20:00.434Z,100.00
2019-05-09T05:22:41.738Z,100.00
2019-05-09T05:25:11.152Z,100.00
2019-05-09T05:27:40.542Z,100.00
2019-05-09T05:30:10.084Z,100.00
2019-05-09T05:32:58.016Z,100.00
2019-05-09T05:35:32.726Z,100.00
2019-05-09T05:38:02.199Z,100.00
2019-05-09T05:40:33.702Z,100.00
2019-05-09T05:43:02.845Z,100.00
2019-05-09T05:45:37.500Z,100.00
2019-05-09T05:48:19.942Z,100.00
2019-05-09T05:50:49.411Z,100.00
2019-05-09T05:53:19.031Z,100.00
2019-05-09T05:55:52.544Z,100.00
2019-05-09T05:58:19.783Z,100.00
2019-05-09T06:00:49.331Z,100.00
2019-05-09T06:03:19.730Z,100.00
2019-05-09T06:05:51.688Z,100.00
2019-05-09T06:08:20.276Z,100.00
2019-05-09T06:10:49.799Z,100.00
2019-05-09T06:13:19.193Z,100.00
2019-05-09T06:15:48.617Z,100.00
2019-05-09T06:18:20.503Z,100.00
2019-05-09T06:20:49.960Z,100.00
2019-05-09T06:23:19.469Z,100.00
2019-05-09T06:25:48.924Z,100.00
2019-05-09T06:28:18.436Z,100.00
2019-05-09T06:30:47.943Z,100.00
2019-05-09T06:33:18.105Z,100.00
2019-05-09T06:35:48.187Z,100.00
2019-05-09T06:38:18.699Z,100.00
2019-05-09T06:40:48.356Z,100.00
2019-05-09T06:43:19.323Z,100.00
2019-05-09T06:46:08.170Z,100.00
2019-05-09T06:48:38.037Z,100.00
2019-05-09T06:51:07.525Z,100.00
2019-05-09T06:53:38.710Z,100.00
2019-05-09T06:56:08.131Z,100.00
2019-05-09T06:58:38.386Z,100.00
2019-05-09T07:01:30.362Z,100.00
2019-05-09T07:04:13.890Z,100.00
2019-05-09T07:06:49.986Z,100.00
2019-05-09T07:09:32.044Z,100.00
2019-05-09T07:12:01.522Z,100.00
2019-05-09T07:14:41.888Z,100.00
2019-05-09T07:17:11.158Z,100.00
2019-05-09T07:19:43.765Z,100.00
2019-05-09T07:22:29.116Z,100.00
2019-05-09T07:25:11.235Z,100.00
2019-05-09T07:27:41.023Z,100.00
2019-05-09T07:30:20.828Z,100.00
2019-05-09T07:33:08.604Z,100.00
2019-05-09T07:35:38.373Z,100.00
2019-05-09T07:38:08.567Z,100.00
2019-05-09T07:40:38.642Z,100.00
2019-05-09T07:43:08.426Z,100.00
2019-05-09T07:45:40.075Z,100.00
2019-05-09T07:48:09.557Z,100.00
2019-05-09T07:50:39.133Z,100.00
2019-05-09T07:53:08.991Z,100.00
2019-05-09T07:55:38.674Z,100.00
2019-05-09T07:58:08.338Z,100.00
2019-05-09T08:00:38.665Z,100.00
2019-05-09T08:03:12.609Z,100.00
2019-05-09T08:05:39.325Z,100.00
2019-05-09T08:08:11.781Z,100.00
2019-05-09T08:10:41.258Z,100.00
2019-05-09T08:13:11.964Z,100.00
2019-05-09T08:15:41.830Z,98.11
2019-05-09T08:18:11.348Z,98.13
2019-05-09T08:20:40.894Z,96.33
2019-05-09T08:23:10.291Z,94.64
2019-05-09T08:25:39.837Z,94.92
2019-05-09T08:28:09.417Z,92.24
2019-05-09T08:30:40.606Z,92.53
2019-05-09T08:33:10.555Z,91.29
2019-05-09T08:35:40.941Z,88.94
2019-05-09T08:38:10.796Z,89.21
2019-05-09T08:40:40.749Z,88.61
2019-05-09T08:43:10.215Z,87.98
2019-05-09T08:45:39.635Z,88.00
2019-05-09T08:48:09.604Z,88.02
2019-05-09T08:50:52.332Z,87.83
2019-05-09T08:53:22.182Z,87.43
2019-05-09T08:55:51.604Z,86.92
2019-05-09T08:58:20.969Z,79.96
2019-05-09T09:00:53.321Z,81.19
2019-05-09T09:03:22.822Z,80.33
2019-05-09T09:05:52.390Z,80.07
2019-05-09T09:08:21.831Z,79.02
2019-05-09T09:10:51.377Z,76.87
2019-05-09T09:13:20.909Z,75.28
2019-05-09T09:16:08.507Z,74.43
2019-05-09T09:18:21.643Z,70.19
2019-05-09T09:20:51.024Z,69.17
2019-05-09T09:23:20.436Z,68.94
2019-05-09T09:25:49.900Z,69.06
2019-05-09T09:28:19.354Z,64.41
2019-05-09T09:30:48.856Z,61.70
2019-05-09T09:33:18.235Z,64.03
2019-05-09T09:35:49.021Z,65.90
2019-05-09T09:38:18.634Z,65.48
2019-05-09T09:40:48.152Z,63.17
2019-05-09T09:43:17.798Z,63.39
2019-05-09T09:45:48.282Z,63.75
2019-05-09T09:48:18.665Z,63.39
2019-05-09T09:50:51.369Z,63.97
2019-05-09T09:53:19.280Z,64.63
2019-05-09T09:55:48.669Z,65.84
2019-05-09T09:58:19.190Z,65.06
2019-05-09T10:01:18.254Z,64.35
2019-05-09T10:03:49.009Z,63.13
2019-05-09T10:06:18.558Z,62.07
2019-05-09T10:08:49.034Z,61.29
2019-05-09T10:11:18.637Z,58.83
2019-05-09T10:13:51.747Z,59.90
2019-05-09T10:16:35.862Z,59.58
2019-05-09T10:19:18.550Z,59.64
2019-05-09T10:21:50.980Z,59.99
2019-05-09T10:24:22.596Z,57.93
2019-05-09T10:27:09.192Z,57.10
2019-05-09T10:29:39.111Z,54.53
2019-05-09T10:32:12.067Z,56.15
2019-05-09T10:34:41.568Z,56.23
2019-05-09T10:37:11.085Z,54.81
2019-05-09T10:39:40.518Z,54.50
2019-05-09T10:42:18.812Z,53.81
2019-05-09T10:44:53.877Z,53.99
2019-05-09T10:47:27.322Z,54.19
2019-05-09T10:49:58.209Z,54.59
2019-05-09T10:52:28.323Z,54.18
2019-05-09T10:54:59.088Z,51.46
2019-05-09T10:57:31.607Z,53.31
2019-05-09T10:59:59.681Z,53.97
2019-05-09T11:02:29.097Z,52.67
2019-05-09T11:04:58.509Z,51.92
2019-05-09T11:07:28.956Z,50.45
2019-05-09T11:09:59.064Z,49.18
2019-05-09T11:12:28.967Z,49.91
2019-05-09T11:14:59.364Z,49.86
2019-05-09T11:17:29.249Z,48.81
2019-05-09T11:19:59.044Z,49.13
2019-05-09T11:22:29.359Z,44.12
2019-05-09T11:24:59.161Z,45.30
2019-05-09T11:27:29.364Z,46.50
2019-05-09T11:29:58.971Z,47.39
2019-05-09T11:32:28.552Z,45.91
2019-05-09T11:34:58.081Z,44.31
2019-05-09T11:37:27.552Z,44.35
2019-05-09T11:39:58.029Z,43.23
2019-05-09T11:42:28.485Z,43.72
2019-05-09T11:44:58.374Z,42.57
2019-05-09T11:47:36.437Z,41.46
2019-05-09T11:49:58.910Z,42.58
2019-05-09T11:52:28.988Z,44.50
2019-05-09T11:54:58.570Z,45.40
2019-05-09T11:57:31.334Z,45.14
2019-05-09T11:59:59.219Z,46.84
2019-05-09T12:02:28.718Z,47.15
2019-05-09T12:04:58.227Z,46.24
2019-05-09T12:07:28.818Z,45.86
2019-05-09T12:09:59.091Z,44.83
2019-05-09T12:12:28.667Z,44.13
2019-05-09T12:14:59.237Z,43.26
2019-05-09T12:17:40.834Z,42.08
2019-05-09T12:20:09.607Z,37.44
2019-05-09T12:22:31.153Z,38.13
2019-05-09T12:25:00.621Z,38.84
2019-05-09T12:27:30.085Z,39.75
2019-05-09T12:30:00.619Z,40.44
2019-05-09T12:32:30.111Z,40.58
2019-05-09T12:34:59.533Z,40.98
2019-05-09T12:37:28.946Z,40.03
2019-05-09T12:39:58.677Z,39.76
2019-05-09T12:42:29.277Z,40.65
2019-05-09T12:44:59.217Z,37.98
2019-05-09T12:47:29.276Z,38.30
2019-05-09T12:50:02.688Z,37.70
2019-05-09T12:52:30.002Z,38.94
2019-05-09T12:55:02.562Z,38.54
2019-05-09T12:57:32.732Z,41.77
2019-05-09T13:00:02.173Z,43.02
2019-05-09T13:02:31.570Z,43.23
2019-05-09T13:05:01.089Z,42.86
2019-05-09T13:07:30.549Z,41.77
2019-05-09T13:10:00.058Z,38.04
2019-05-09T13:12:29.449Z,39.58
2019-05-09T13:14:58.945Z,37.37
2019-05-09T13:17:33.754Z,38.97
2019-05-09T13:20:03.974Z,38.14
2019-05-09T13:22:33.337Z,38.75
2019-05-09T13:25:03.132Z,37.50
2019-05-09T13:27:32.757Z,37.85
2019-05-09T13:30:02.519Z,37.72
2019-05-09T13:32:32.135Z,37.76
2019-05-09T13:35:01.716Z,38.20
2019-05-09T13:37:31.177Z,36.88
2019-05-09T13:40:00.663Z,36.41
2019-05-09T13:42:30.130Z,36.90
2019-05-09T13:44:59.550Z,36.57
2019-05-09T13:47:29.993Z,38.01
2019-05-09T13:49:59.673Z,38.56
2019-05-09T13:52:29.051Z,39.31
2019-05-09T13:54:58.785Z,40.01
2019-05-09T13:57:28.348Z,40.94
2019-05-09T13:59:59.625Z,41.05
2019-05-09T14:02:29.619Z,42.21
2019-05-09T14:04:59.261Z,43.04
2019-05-09T14:07:29.718Z,43.88
2019-05-09T14:09:59.189Z,44.36
2019-05-09T14:12:29.027Z,44.42
2019-05-09T14:14:58.849Z,44.60
2019-05-09T14:17:44.908Z,45.08
2019-05-09T14:19:59.643Z,45.44
2019-05-09T14:22:29.061Z,45.47
2019-05-09T14:24:58.701Z,44.83
2019-05-09T14:27:28.973Z,44.90
2019-05-09T14:29:59.540Z,44.93
2019-05-09T14:32:33.142Z,46.87
2019-05-09T14:35:00.379Z,47.49
2019-05-09T14:37:31.703Z,48.32
2019-05-09T14:40:04.405Z,49.37
2019-05-09T14:42:32.204Z,50.75
2019-05-09T14:45:01.612Z,51.32
2019-05-09T14:47:31.148Z,51.52
2019-05-09T14:50:00.547Z,52.26
2019-05-09T14:52:29.958Z,52.40
2019-05-09T14:54:59.318Z,52.71
2019-05-09T14:57:29.812Z,53.04
2019-05-09T14:59:59.214Z,53.23
2019-05-09T15:02:28.638Z,53.27
2019-05-09T15:04:58.676Z,52.82
2019-05-09T15:07:28.520Z,52.75
2019-05-09T15:09:59.934Z,51.70
2019-05-09T15:12:29.287Z,52.24
2019-05-09T15:14:58.780Z,52.38
2019-05-09T15:17:28.283Z,52.63
2019-05-09T15:20:00.601Z,53.96
2019-05-09T15:22:28.985Z,53.98
2019-05-09T15:24:59.127Z,54.22
2019-05-09T15:27:38.481Z,53.50
2019-05-09T15:30:08.260Z,53.93
2019-05-09T15:32:37.899Z,54.61
2019-05-09T15:35:09.001Z,54.83
2019-05-09T15:37:38.933Z,55.17
2019-05-09T15:40:09.028Z,55.53
2019-05-09T15:42:39.084Z,55.46
2019-05-09T15:45:09.320Z,55.38
2019-05-09T15:47:38.838Z,54.29
2019-05-09T15:50:19.175Z,54.09
2019-05-09T15:52:39.537Z,53.73
2019-05-09T15:55:09.844Z,53.59
2019-05-09T15:57:39.439Z,53.88
2019-05-09T16:00:11.641Z,53.17
2019-05-09T16:02:41.030Z,53.46
2019-05-09T16:05:10.874Z,53.48
2019-05-09T16:07:40.628Z,52.95
2019-05-09T16:10:10.189Z,49.61
2019-05-09T16:12:39.625Z,49.94
2019-05-09T16:15:09.188Z,48.56
2019-05-09T16:17:39.435Z,45.44
2019-05-09T16:20:09.427Z,42.62
2019-05-09T16:22:39.397Z,33.49
2019-05-09T16:25:09.411Z,32.43
2019-05-09T16:27:39.004Z,30.23
2019-05-09T16:30:09.872Z,31.75
2019-05-09T16:32:39.291Z,31.42
2019-05-09T16:35:08.870Z,30.62
2019-05-09T16:37:56.824Z,30.26
2019-05-09T16:40:09.695Z,30.75
2019-05-09T16:42:39.131Z,30.48
2019-05-09T16:45:10.095Z,31.45
2019-05-09T16:47:39.651Z,32.04
2019-05-09T16:50:12.104Z,33.14
2019-05-09T16:52:43.624Z,34.37
2019-05-09T16:55:18.083Z,36.26
2019-05-09T16:57:47.803Z,39.26
2019-05-09T17:00:31.227Z,41.65
2019-05-09T17:03:00.692Z,44.01
2019-05-09T17:05:30.107Z,45.83
2019-05-09T17:07:59.621Z,48.26
2019-05-09T17:10:29.017Z,50.13
2019-05-09T17:12:58.803Z,51.55
2019-05-09T17:15:29.277Z,51.98
2019-05-09T17:17:58.962Z,53.47
2019-05-09T17:20:38.269Z,54.14
2019-05-09T17:23:14.772Z,54.59
2019-05-09T17:25:42.087Z,55.04
2019-05-09T17:28:11.551Z,55.25
2019-05-09T17:30:41.060Z,55.69
2019-05-09T17:33:10.661Z,55.79
2019-05-09T17:35:40.038Z,56.26
2019-05-09T17:38:09.507Z,56.77
2019-05-09T17:40:39.424Z,57.61
2019-05-09T17:43:09.105Z,57.95
2019-05-09T17:45:41.876Z,58.83
2019-05-09T17:48:09.796Z,59.75
2019-05-09T17:50:39.309Z,60.53
2019-05-09T17:53:08.824Z,61.03
2019-05-09T17:55:38.441Z,61.38
2019-05-09T17:58:09.087Z,61.47
2019-05-09T18:00:38.587Z,61.61
2019-05-09T18:03:07.972Z,61.71
2019-05-09T18:05:38.978Z,61.99
2019-05-09T18:08:08.580Z,62.32
2019-05-09T18:10:38.293Z,61.96
2019-05-09T18:13:08.265Z,60.69
2019-05-09T18:15:38.235Z,59.55
2019-05-09T18:18:07.739Z,57.27
2019-05-09T18:20:37.921Z,55.67
2019-05-09T18:23:08.463Z,56.86
2019-05-09T18:25:38.111Z,57.54
2019-05-09T18:28:07.683Z,58.41
2019-05-09T18:30:38.844Z,58.79
2019-05-09T18:33:13.320Z,59.58
2019-05-09T18:35:42.837Z,60.38
2019-05-09T18:38:19.840Z,61.23
2019-05-09T18:40:49.371Z,62.24
2019-05-09T18:43:19.008Z,63.43
2019-05-09T18:45:48.729Z,64.01
2019-05-09T18:48:18.694Z,64.72
2019-05-09T18:50:48.280Z,65.59
2019-05-09T18:53:17.672Z,66.37
2019-05-09T18:55:47.039Z,67.24
2019-05-09T18:58:16.582Z,68.04
2019-05-09T19:00:46.303Z,68.92
2019-05-09T19:03:15.836Z,69.86
2019-05-09T19:05:45.231Z,70.65
2019-05-09T19:08:14.808Z,71.47
2019-05-09T19:10:44.245Z,72.30
2019-05-09T19:13:13.973Z,73.01
2019-05-09T19:16:05.976Z,73.74
2019-05-09T19:18:43.523Z,74.43
2019-05-09T19:21:28.808Z,75.17
2019-05-09T19:23:58.297Z,75.90
2019-05-09T19:26:36.696Z,76.64
2019-05-09T19:29:08.092Z,77.35
2019-05-09T19:31:38.630Z,78.07
2019-05-09T19:34:09.157Z,78.76
2019-05-09T19:36:38.614Z,79.35
2019-05-09T19:39:10.154Z,79.95
2019-05-09T19:41:40.090Z,80.59
2019-05-09T19:44:09.926Z,81.09
2019-05-09T19:46:39.379Z,81.79
2019-05-09T19:49:08.735Z,82.21
2019-05-09T19:51:38.176Z,82.64
2019-05-09T19:54:07.664Z,83.14
2019-05-09T19:56:37.191Z,83.60
2019-05-09T19:59:08.048Z,84.03
2019-05-09T20:01:38.685Z,84.56
2019-05-09T20:04:08.295Z,85.07
2019-05-09T20:06:37.839Z,85.39
2019-05-09T20:09:14.251Z,85.75
2019-05-09T20:12:05.383Z,86.22
2019-05-09T20:14:37.874Z,86.12
2019-05-09T20:17:07.375Z,86.75
2019-05-09T20:19:36.892Z,87.11
2019-05-09T20:22:06.407Z,86.99
2019-05-09T20:24:35.841Z,87.35
2019-05-09T20:27:05.424Z,87.27
2019-05-09T20:29:34.800Z,87.28
2019-05-09T20:32:04.532Z,87.34
2019-05-09T20:34:34.022Z,87.27
2019-05-09T20:37:03.432Z,87.33
2019-05-09T20:39:33.052Z,87.20
2019-05-09T20:42:02.734Z,87.20
2019-05-09T20:44:32.312Z,87.13
2019-05-09T20:47:02.065Z,87.18
2019-05-09T20:49:31.595Z,87.15
2019-05-09T20:52:01.293Z,87.12
2019-05-09T20:54:30.833Z,87.05
2019-05-09T20:57:00.535Z,87.06
2019-05-09T20:59:30.279Z,87.12
2019-05-09T21:01:59.954Z,86.98
2019-05-09T21:04:29.711Z,86.85
2019-05-09T21:06:59.388Z,86.87
2019-05-09T21:09:28.995Z,86.36
2019-05-09T21:11:58.821Z,86.36
2019-05-09T21:14:28.485Z,86.37
2019-05-09T21:16:58.141Z,85.58
2019-05-09T21:19:27.755Z,85.35
2019-05-09T21:21:57.398Z,85.26
2019-05-09T21:24:27.203Z,84.88
2019-05-09T21:26:56.823Z,84.78
2019-05-09T21:29:26.401Z,84.85
2019-05-09T21:31:56.061Z,84.87
2019-05-09T21:34:25.824Z,84.96
2019-05-09T21:36:55.344Z,84.88
2019-05-09T21:39:24.732Z,84.48
2019-05-09T21:41:54.173Z,84.57
2019-05-09T21:44:23.574Z,84.44
2019-05-09T21:46:53.115Z,84.97
2019-05-09T21:49:22.705Z,84.77
2019-05-09T21:51:52.165Z,84.71
2019-05-09T21:54:21.624Z,84.80
2019-05-09T21:56:51.071Z,84.91
2019-05-09T21:59:20.455Z,85.05
2019-05-09T22:01:50.012Z,85.16
2019-05-09T22:04:19.453Z,85.50
2019-05-09T22:06:49.041Z,85.67
2019-05-09T22:09:18.632Z,85.61
2019-05-09T22:11:48.181Z,85.84
2019-05-09T22:14:17.661Z,86.44
2019-05-09T22:16:48.724Z,86.32
2019-05-09T22:19:18.208Z,86.47
2019-05-09T22:21:47.653Z,86.52
2019-05-09T22:24:17.035Z,86.64
2019-05-09T22:26:46.751Z,87.51
2019-05-09T22:29:16.889Z,87.44
2019-05-09T22:31:46.373Z,86.59
2019-05-09T22:34:15.821Z,85.96
2019-05-09T22:36:45.333Z,85.61
2019-05-09T22:39:14.758Z,85.46
2019-05-09T22:41:44.355Z,85.77
2019-05-09T22:44:13.870Z,85.30
2019-05-09T22:46:43.290Z,85.07
2019-05-09T22:49:12.704Z,85.08
2019-05-09T22:51:42.154Z,85.23
2019-05-09T22:54:13.186Z,85.26
2019-05-09T22:56:42.827Z,85.22
2019-05-09T22:59:12.332Z,85.37
2019-05-09T23:01:41.891Z,85.48
2019-05-09T23:04:11.348Z,85.22
2019-05-09T23:06:40.710Z,85.90
2019-05-09T23:09:10.209Z,85.96
2019-05-09T23:11:40.927Z,85.77
2019-05-09T23:14:10.449Z,86.25
2019-05-09T23:16:41.291Z,86.44
2019-05-09T23:19:10.744Z,86.61
2019-05-09T23:21:40.190Z,86.68
2019-05-09T23:24:26.505Z,86.79
2019-05-09T23:26:42.839Z,86.76
2019-05-09T23:29:12.357Z,87.01
2019-05-09T23:32:06.713Z,87.43
2019-05-09T23:34:36.207Z,87.58
2019-05-09T23:37:05.552Z,87.93
2019-05-09T23:39:39.763Z,88.05
2019-05-09T23:42:09.250Z,89.58
2019-05-09T23:44:38.773Z,89.46
2019-05-09T23:47:08.288Z,90.38
2019-05-09T23:49:37.849Z,90.16
2019-05-09T23:52:07.165Z,90.69
2019-05-09T23:54:54.401Z,90.71
2019-05-09T23:57:41.532Z,91.28
